createdAt,value
2018-04-14T00:01:33.753Z,93.00
2018-04-14T00:04:00.201Z,93.00
2018-04-14T00:06:26.713Z,93.30
2018-04-14T00:08:53.161Z,93.30
2018-04-14T00:11:19.593Z,93.60
2018-04-14T00:13:46.053Z,93.50
2018-04-14T00:16:12.510Z,93.60
2018-04-14T00:18:39.988Z,93.50
2018-04-14T00:21:07.274Z,93.20
2018-04-14T00:23:33.713Z,93.20
2018-04-14T00:26:00.147Z,93.50
2018-04-14T00:28:26.627Z,94.00
2018-04-14T00:30:53.081Z,94.00
2018-04-14T00:33:19.555Z,94.00
2018-04-14T00:35:45.976Z,93.70
2018-04-14T00:38:12.406Z,93.70
2018-04-14T00:40:38.842Z,93.60
2018-04-14T00:43:05.280Z,93.60
2018-04-14T00:45:31.763Z,93.50
2018-04-14T00:47:58.961Z,93.60
2018-04-14T00:50:25.409Z,93.60
2018-04-14T00:52:51.844Z,93.70
2018-04-14T00:55:19.646Z,93.80
2018-04-14T00:57:46.126Z,93.90
2018-04-14T01:00:12.772Z,93.80
2018-04-14T01:02:39.862Z,93.20
2018-04-14T01:05:06.448Z,93.70
2018-04-14T01:07:32.885Z,93.90
2018-04-14T01:09:59.337Z,94.10
2018-04-14T01:12:25.787Z,93.40
2018-04-14T01:14:52.219Z,93.50
2018-04-14T01:17:18.642Z,93.40
2018-04-14T01:19:45.123Z,93.60
2018-04-14T01:22:12.364Z,93.00
2018-04-14T01:24:39.608Z,93.80
2018-04-14T01:27:06.054Z,93.80
2018-04-14T01:29:33.260Z,93.00
2018-04-14T01:31:59.727Z,93.00
2018-04-14T01:34:27.762Z,93.60
2018-04-14T01:36:54.255Z,93.50
2018-04-14T01:39:21.447Z,93.70
2018-04-14T01:41:48.174Z,93.70
2018-04-14T01:44:14.684Z,92.70
2018-04-14T01:46:41.885Z,93.80
2018-04-14T01:49:08.370Z,93.80
2018-04-14T01:51:35.554Z,93.20
2018-04-14T01:54:03.130Z,93.30
2018-04-14T01:56:29.599Z,93.50
2018-04-14T01:58:56.776Z,93.40
2018-04-14T02:01:23.238Z,93.20
2018-04-14T02:03:49.715Z,93.40
2018-04-14T02:06:16.715Z,93.70
2018-04-14T02:08:43.168Z,93.60
2018-04-14T02:11:09.659Z,93.60
2018-04-14T02:13:36.846Z,93.50
2018-04-14T02:16:03.291Z,93.50
2018-04-14T02:18:29.715Z,93.40
2018-04-14T02:20:56.205Z,93.10
2018-04-14T02:23:22.695Z,93.30
2018-04-14T02:25:49.150Z,93.60
2018-04-14T02:28:15.597Z,93.70
2018-04-14T02:30:42.053Z,93.30
2018-04-14T02:33:08.485Z,93.10
2018-04-14T02:35:34.994Z,93.20
2018-04-14T02:38:02.247Z,93.30
2018-04-14T02:40:28.707Z,93.30
2018-04-14T02:42:55.181Z,93.00
2018-04-14T02:45:21.636Z,93.70
2018-04-14T02:47:49.601Z,93.50
2018-04-14T02:50:16.829Z,93.40
2018-04-14T02:52:43.274Z,93.40
2018-04-14T02:55:10.290Z,93.40
2018-04-14T02:57:36.754Z,93.30
2018-04-14T03:00:04.374Z,93.50
2018-04-14T03:02:30.817Z,93.90
2018-04-14T03:04:57.466Z,94.00
2018-04-14T03:07:23.995Z,94.00
2018-04-14T03:09:50.450Z,93.60
2018-04-14T03:12:16.932Z,93.90
2018-04-14T03:14:43.424Z,93.90
2018-04-14T03:17:10.109Z,93.70
2018-04-14T03:19:37.288Z,93.40
2018-04-14T03:22:03.730Z,93.40
2018-04-14T03:24:30.187Z,93.40
2018-04-14T03:26:56.795Z,93.80
2018-04-14T03:29:23.255Z,93.60
2018-04-14T03:31:49.705Z,93.50
2018-04-14T03:34:16.192Z,93.00
2018-04-14T03:36:42.627Z,93.40
2018-04-14T03:39:09.163Z,93.40
2018-04-14T03:41:35.619Z,93.70
2018-04-14T03:44:02.078Z,93.50
2018-04-14T03:46:28.518Z,92.60
2018-04-14T03:48:54.962Z,93.10
2018-04-14T03:51:22.908Z,93.40
2018-04-14T03:53:49.371Z,93.40
2018-04-14T03:56:16.501Z,93.40
2018-04-14T03:58:42.997Z,93.40
2018-04-14T04:01:09.445Z,93.60
2018-04-14T04:03:35.901Z,93.80
2018-04-14T04:06:02.394Z,93.50
2018-04-14T04:08:28.814Z,93.50
2018-04-14T04:10:55.271Z,93.40
2018-04-14T04:13:21.768Z,93.80
2018-04-14T04:15:48.949Z,93.70
2018-04-14T04:18:15.446Z,93.70
2018-04-14T04:20:56.797Z,93.20
2018-04-14T04:23:35.454Z,93.20
2018-04-14T04:26:02.663Z,94.10
2018-04-14T04:28:29.123Z,94.10
2018-04-14T04:30:55.715Z,94.10
2018-04-14T04:33:22.150Z,93.80
2018-04-14T04:35:48.641Z,93.90
2018-04-14T04:38:15.065Z,93.60
2018-04-14T04:40:42.277Z,93.90
2018-04-14T04:43:08.741Z,93.80
2018-04-14T04:45:35.179Z,94.10
2018-04-14T04:48:01.613Z,93.70
2018-04-14T04:50:28.111Z,93.70
2018-04-14T04:52:54.555Z,93.60
2018-04-14T04:55:21.044Z,93.60
2018-04-14T04:57:47.502Z,93.40
2018-04-14T05:00:13.974Z,93.80
2018-04-14T05:02:40.460Z,93.60
2018-04-14T05:05:06.918Z,93.30
2018-04-14T05:07:33.377Z,93.60
2018-04-14T05:10:00.563Z,93.80
2018-04-14T05:12:26.998Z,93.80
2018-04-14T05:14:53.446Z,94.00
2018-04-14T05:17:19.888Z,93.00
2018-04-14T05:19:47.227Z,93.10
2018-04-14T05:22:14.978Z,93.50
2018-04-14T05:24:41.439Z,94.00
2018-04-14T05:27:07.873Z,94.00
2018-04-14T05:29:34.308Z,93.80
2018-04-14T05:32:07.688Z,93.90
2018-04-14T05:34:34.117Z,93.40
2018-04-14T05:37:01.514Z,93.60
2018-04-14T05:39:29.429Z,93.70
2018-04-14T05:41:55.871Z,93.70
2018-04-14T05:44:22.300Z,93.70
2018-04-14T05:46:48.746Z,93.90
2018-04-14T05:49:16.139Z,93.90
2018-04-14T05:51:42.622Z,94.00
2018-04-14T05:54:09.068Z,94.10
2018-04-14T05:56:35.503Z,94.00
2018-04-14T05:59:01.934Z,94.00
2018-04-14T06:01:28.355Z,94.10
2018-04-14T06:03:54.790Z,94.10
2018-04-14T06:06:21.253Z,94.00
2018-04-14T06:08:47.716Z,93.90
2018-04-14T06:11:14.891Z,94.10
2018-04-14T06:13:41.326Z,94.00
2018-04-14T06:16:08.482Z,94.60
2018-04-14T06:18:34.919Z,94.50
2018-04-14T06:21:01.362Z,94.70
2018-04-14T06:23:27.791Z,94.80
2018-04-14T06:25:54.223Z,95.00
2018-04-14T06:28:20.638Z,95.10
2018-04-14T06:30:47.785Z,95.40
2018-04-14T06:33:14.247Z,95.30
2018-04-14T06:35:40.698Z,95.40
2018-04-14T06:38:07.145Z,95.50
2018-04-14T06:40:33.564Z,95.60
2018-04-14T06:42:59.984Z,95.50
2018-04-14T06:45:26.422Z,95.30
2018-04-14T06:47:52.836Z,95.40
2018-04-14T06:50:19.254Z,95.30
2018-04-14T06:52:45.662Z,95.40
2018-04-14T06:55:12.079Z,95.20
2018-04-14T06:57:38.491Z,95.50
2018-04-14T07:00:04.916Z,95.30
2018-04-14T07:02:31.355Z,95.30
2018-04-14T07:04:57.809Z,95.20
2018-04-14T07:07:24.218Z,95.00
2018-04-14T07:09:50.645Z,95.30
2018-04-14T07:12:17.058Z,95.20
2018-04-14T07:14:44.229Z,95.10
2018-04-14T07:17:10.636Z,95.10
2018-04-14T07:19:37.823Z,95.20
2018-04-14T07:22:04.268Z,95.20
2018-04-14T07:24:30.718Z,95.00
2018-04-14T07:26:57.134Z,95.00
2018-04-14T07:29:23.554Z,94.80
2018-04-14T07:31:49.980Z,94.80
2018-04-14T07:34:16.447Z,94.60
2018-04-14T07:36:42.876Z,94.30
2018-04-14T07:39:09.324Z,94.30
2018-04-14T07:41:35.756Z,94.00
2018-04-14T07:44:02.194Z,93.90
2018-04-14T07:46:28.604Z,93.60
2018-04-14T07:48:55.022Z,93.50
2018-04-14T07:51:21.468Z,93.30
2018-04-14T07:53:47.887Z,93.00
2018-04-14T07:56:14.334Z,93.10
2018-04-14T07:58:40.772Z,92.90
2018-04-14T08:01:07.210Z,92.90
2018-04-14T08:03:33.686Z,92.70
2018-04-14T08:06:00.118Z,92.80
2018-04-14T08:08:27.281Z,93.10
2018-04-14T08:10:54.440Z,92.90
2018-04-14T08:13:20.988Z,92.90
2018-04-14T08:15:47.426Z,92.60
2018-04-14T08:18:13.858Z,92.30
2018-04-14T08:20:40.315Z,91.90
2018-04-14T08:23:06.734Z,91.90
2018-04-14T08:25:33.198Z,91.80
2018-04-14T08:27:59.705Z,91.80
2018-04-14T08:30:26.130Z,91.80
2018-04-14T08:32:52.581Z,91.40
2018-04-14T08:35:19.005Z,91.50
2018-04-14T08:37:45.465Z,92.20
2018-04-14T08:40:11.899Z,91.50
2018-04-14T08:42:38.358Z,91.30
2018-04-14T08:45:06.221Z,91.30
2018-04-14T08:47:32.660Z,91.30
2018-04-14T08:49:59.850Z,90.50
2018-04-14T08:52:26.313Z,90.50
2018-04-14T08:54:52.773Z,89.70
2018-04-14T08:57:19.826Z,89.50
2018-04-14T08:59:47.027Z,90.10
2018-04-14T09:02:13.482Z,89.40
2018-04-14T09:04:39.904Z,89.00
2018-04-14T09:07:06.336Z,88.20
2018-04-14T09:09:32.760Z,87.70
2018-04-14T09:11:59.188Z,89.40
2018-04-14T09:14:25.636Z,89.30
2018-04-14T09:16:52.064Z,87.40
2018-04-14T09:19:18.508Z,87.70
2018-04-14T09:21:44.931Z,88.20
2018-04-14T09:24:11.368Z,86.80
2018-04-14T09:26:37.792Z,85.50
2018-04-14T09:29:04.198Z,85.40
2018-04-14T09:31:31.422Z,85.80
2018-04-14T09:33:57.834Z,85.70
2018-04-14T09:36:24.277Z,85.00
2018-04-14T09:38:50.710Z,84.60
2018-04-14T09:41:17.132Z,85.30
2018-04-14T09:43:43.574Z,84.80
2018-04-14T09:46:10.010Z,85.10
2018-04-14T09:48:36.447Z,83.40
2018-04-14T09:51:02.880Z,83.60
2018-04-14T09:53:29.306Z,83.50
2018-04-14T09:55:55.723Z,83.60
2018-04-14T09:58:22.149Z,84.80
2018-04-14T10:00:54.496Z,83.80
2018-04-14T10:03:22.764Z,83.60
2018-04-14T10:05:49.935Z,83.60
2018-04-14T10:08:16.360Z,83.50
2018-04-14T10:10:42.784Z,82.40
2018-04-14T10:13:09.202Z,82.10
2018-04-14T10:15:36.379Z,81.20
2018-04-14T10:18:02.827Z,80.30
2018-04-14T10:20:29.257Z,81.00
2018-04-14T10:22:55.669Z,80.30
2018-04-14T10:25:22.847Z,79.20
2018-04-14T10:27:49.301Z,79.20
2018-04-14T10:30:15.773Z,78.40
2018-04-14T10:32:42.944Z,79.40
2018-04-14T10:35:09.381Z,80.10
2018-04-14T10:37:35.821Z,79.20
2018-04-14T10:40:02.233Z,77.40
2018-04-14T10:42:28.638Z,77.40
2018-04-14T10:44:56.153Z,77.90
2018-04-14T10:47:22.585Z,76.80
2018-04-14T10:49:48.995Z,78.30
2018-04-14T10:52:15.440Z,77.90
2018-04-14T10:54:41.855Z,76.60
2018-04-14T10:57:09.037Z,75.30
2018-04-14T10:59:35.463Z,75.20
2018-04-14T11:02:01.872Z,76.10
2018-04-14T11:04:29.055Z,75.40
2018-04-14T11:06:55.497Z,75.40
2018-04-14T11:09:21.913Z,74.10
2018-04-14T11:11:48.339Z,75.20
2018-04-14T11:14:14.773Z,76.80
2018-04-14T11:16:41.238Z,75.90
2018-04-14T11:19:07.667Z,75.40
2018-04-14T11:21:34.178Z,73.70
2018-04-14T11:24:00.596Z,74.80
2018-04-14T11:26:27.751Z,74.70
2018-04-14T11:28:54.929Z,73.80
2018-04-14T11:31:21.403Z,73.80
2018-04-14T11:33:47.804Z,71.60
2018-04-14T11:36:14.236Z,72.20
2018-04-14T11:38:40.651Z,71.70
2018-04-14T11:41:07.083Z,70.90
2018-04-14T11:43:33.481Z,69.50
2018-04-14T11:45:59.919Z,68.60
2018-04-14T11:48:27.053Z,69.10
2018-04-14T11:50:53.573Z,69.00
2018-04-14T11:53:19.967Z,68.50
2018-04-14T11:55:46.383Z,68.40
2018-04-14T11:58:12.799Z,68.90
2018-04-14T12:00:39.257Z,67.70
2018-04-14T12:03:06.405Z,66.90
2018-04-14T12:05:33.576Z,66.00
2018-04-14T12:07:59.997Z,66.00
2018-04-14T12:10:26.418Z,65.90
2018-04-14T12:12:52.852Z,67.50
2018-04-14T12:15:20.029Z,66.80
2018-04-14T12:17:46.464Z,66.80
2018-04-14T12:20:12.892Z,67.60
2018-04-14T12:22:39.366Z,64.70
2018-04-14T12:25:05.810Z,66.20
2018-04-14T12:27:32.231Z,65.70
2018-04-14T12:29:58.655Z,65.20
2018-04-14T12:32:25.076Z,63.90
2018-04-14T12:34:51.485Z,63.20
2018-04-14T12:37:17.915Z,63.00
2018-04-14T12:39:45.059Z,62.40
2018-04-14T12:42:12.240Z,64.90
2018-04-14T12:44:38.680Z,64.90
2018-04-14T12:47:05.116Z,66.60
2018-04-14T12:49:31.537Z,62.90
2018-04-14T12:51:57.946Z,64.40
2018-04-14T12:54:24.370Z,64.30
2018-04-14T12:56:51.550Z,61.80
2018-04-14T12:59:17.989Z,61.80
2018-04-14T13:01:44.438Z,62.40
2018-04-14T13:04:10.856Z,62.30
2018-04-14T13:06:37.262Z,63.30
2018-04-14T13:09:04.504Z,63.00
2018-04-14T13:11:30.934Z,63.00
2018-04-14T13:13:59.587Z,61.80
2018-04-14T13:16:26.001Z,61.20
2018-04-14T13:18:52.448Z,63.60
2018-04-14T13:21:19.489Z,64.30
2018-04-14T13:23:45.912Z,61.90
2018-04-14T13:26:12.346Z,63.20
2018-04-14T13:28:38.767Z,60.60
2018-04-14T13:31:05.202Z,61.60
2018-04-14T13:33:31.638Z,62.00
2018-04-14T13:35:58.081Z,60.80
2018-04-14T13:38:24.523Z,59.50
2018-04-14T13:40:50.943Z,59.40
2018-04-14T13:43:17.352Z,58.60
2018-04-14T13:45:43.781Z,59.30
2018-04-14T13:48:10.933Z,60.00
2018-04-14T13:50:37.340Z,60.00
2018-04-14T13:53:03.761Z,59.40
2018-04-14T13:55:30.183Z,59.70
2018-04-14T13:57:56.604Z,59.80
2018-04-14T14:00:23.020Z,59.70
2018-04-14T14:02:49.444Z,59.60
2018-04-14T14:05:15.872Z,58.50
2018-04-14T14:07:42.286Z,58.70
2018-04-14T14:10:09.448Z,57.70
2018-04-14T14:12:35.886Z,57.70
2018-04-14T14:15:03.091Z,56.50
2018-04-14T14:17:29.514Z,56.60
2018-04-14T14:19:55.934Z,57.90
2018-04-14T14:22:22.359Z,56.50
2018-04-14T14:24:48.789Z,57.80
2018-04-14T14:27:15.208Z,56.00
2018-04-14T14:29:41.624Z,56.70
2018-04-14T14:32:08.777Z,55.20
2018-04-14T14:34:35.946Z,55.40
2018-04-14T14:37:02.378Z,55.40
2018-04-14T14:39:28.810Z,56.40
2018-04-14T14:41:55.246Z,54.80
2018-04-14T14:44:21.671Z,54.80
2018-04-14T14:46:48.103Z,55.00
2018-04-14T14:49:16.378Z,54.20
2018-04-14T14:51:42.903Z,54.20
2018-04-14T14:54:10.058Z,53.60
2018-04-14T14:56:37.208Z,54.20
2018-04-14T14:59:04.389Z,54.30
2018-04-14T15:01:30.853Z,54.30
2018-04-14T15:03:57.289Z,53.50
2018-04-14T15:06:23.722Z,53.90
2018-04-14T15:08:50.139Z,53.20
2018-04-14T15:11:16.563Z,52.70
2018-04-14T15:13:43.009Z,52.10
2018-04-14T15:16:09.429Z,53.10
2018-04-14T15:18:35.873Z,52.20
2018-04-14T15:21:02.294Z,53.20
2018-04-14T15:23:28.713Z,52.70
2018-04-14T15:25:55.150Z,53.20
2018-04-14T15:28:21.570Z,54.50
2018-04-14T15:30:48.718Z,54.90
2018-04-14T15:33:15.876Z,54.90
2018-04-14T15:35:42.310Z,54.80
2018-04-14T15:38:08.735Z,55.50
2018-04-14T15:40:35.165Z,55.80
2018-04-14T15:43:02.351Z,57.50
2018-04-14T15:45:28.785Z,58.10
2018-04-14T15:47:56.411Z,57.10
2018-04-14T15:50:22.833Z,58.50
2018-04-14T15:52:50.016Z,59.00
2018-04-14T15:55:16.435Z,59.20
2018-04-14T15:57:44.095Z,58.80
2018-04-14T16:00:11.316Z,59.60
2018-04-14T16:02:37.738Z,59.50
2018-04-14T16:05:04.168Z,60.50
2018-04-14T16:07:30.600Z,60.50
2018-04-14T16:09:57.037Z,61.10
2018-04-14T16:12:23.457Z,62.10
2018-04-14T16:14:49.904Z,61.80
2018-04-14T16:17:16.323Z,62.10
2018-04-14T16:19:42.735Z,62.30
2018-04-14T16:22:10.446Z,63.10
2018-04-14T16:24:36.868Z,63.80
2018-04-14T16:27:03.347Z,64.00
2018-04-14T16:29:30.550Z,65.20
2018-04-14T16:31:56.970Z,65.10
2018-04-14T16:34:23.397Z,64.80
2018-04-14T16:36:49.826Z,65.20
2018-04-14T16:39:16.251Z,65.30
2018-04-14T16:41:42.686Z,65.40
2018-04-14T16:44:09.106Z,66.40
2018-04-14T16:46:35.556Z,66.30
2018-04-14T16:49:02.008Z,66.90
2018-04-14T16:51:28.426Z,66.80
2018-04-14T16:53:54.859Z,66.80
2018-04-14T16:56:21.277Z,67.20
2018-04-14T16:58:47.753Z,67.40
2018-04-14T17:01:14.190Z,67.80
2018-04-14T17:03:40.620Z,67.60
2018-04-14T17:06:07.045Z,67.20
2018-04-14T17:08:33.473Z,67.90
2018-04-14T17:10:59.891Z,67.90
2018-04-14T17:13:26.341Z,67.90
2018-04-14T17:15:52.752Z,68.20
2018-04-14T17:18:19.167Z,68.60
2018-04-14T17:20:45.599Z,68.50
2018-04-14T17:23:12.760Z,70.00
2018-04-14T17:25:39.181Z,69.90
2018-04-14T17:28:06.334Z,71.60
2018-04-14T17:30:32.753Z,71.60
2018-04-14T17:32:59.234Z,74.00
2018-04-14T17:35:25.666Z,74.70
2018-04-14T17:37:52.095Z,78.30
2018-04-14T17:40:18.499Z,78.80
2018-04-14T17:42:45.652Z,81.10
2018-04-14T17:45:12.813Z,81.10
2018-04-14T17:47:39.257Z,80.30
2018-04-14T17:50:05.693Z,80.80
2018-04-14T17:52:32.114Z,82.00
2018-04-14T17:54:58.547Z,84.50
2018-04-14T17:57:24.967Z,85.70
2018-04-14T17:59:51.997Z,85.30
2018-04-14T18:02:18.447Z,87.80
2018-04-14T18:04:44.855Z,86.50
2018-04-14T18:07:11.281Z,88.10
2018-04-14T18:09:37.711Z,90.10
2018-04-14T18:12:04.146Z,91.80
2018-04-14T18:14:30.566Z,96.60
2018-04-14T18:16:57.995Z,95.70
2018-04-14T18:19:24.417Z,95.40
2018-04-14T18:21:50.873Z,96.80
2018-04-14T18:24:17.304Z,96.80
2018-04-14T18:26:43.738Z,95.70
2018-04-14T18:29:10.169Z,95.90
2018-04-14T18:31:36.574Z,95.40
2018-04-14T18:34:03.759Z,96.90
2018-04-14T18:36:30.206Z,96.80
2018-04-14T18:38:56.647Z,94.60
2018-04-14T18:41:23.071Z,96.10
2018-04-14T18:43:49.500Z,99.00
2018-04-14T18:46:15.952Z,99.90
2018-04-14T18:48:42.389Z,99.90
2018-04-14T18:51:08.808Z,99.90
2018-04-14T18:53:35.254Z,99.90
2018-04-14T18:56:02.448Z,99.90
2018-04-14T18:58:28.908Z,99.90
2018-04-14T19:00:55.337Z,99.90
2018-04-14T19:03:21.770Z,99.90
2018-04-14T19:05:48.213Z,99.90
2018-04-14T19:08:14.604Z,99.90
2018-04-14T19:10:41.027Z,99.90
2018-04-14T19:13:07.435Z,99.90
2018-04-14T19:15:33.863Z,99.90
2018-04-14T19:18:00.338Z,99.90
2018-04-14T19:20:26.744Z,99.90
2018-04-14T19:22:53.168Z,99.90
2018-04-14T19:25:19.585Z,99.90
2018-04-14T19:27:46.043Z,99.90
2018-04-14T19:30:12.528Z,99.90
2018-04-14T19:32:38.961Z,99.90
2018-04-14T19:35:05.413Z,99.90
2018-04-14T19:37:31.851Z,99.90
2018-04-14T19:39:58.295Z,99.90
2018-04-14T19:42:24.715Z,99.90
2018-04-14T19:44:51.152Z,99.90
2018-04-14T19:47:19.046Z,99.90
2018-04-14T19:49:52.336Z,99.90
2018-04-14T19:52:18.788Z,99.90
2018-04-14T19:54:46.708Z,99.90
2018-04-14T19:57:13.118Z,99.90
2018-04-14T19:59:40.265Z,99.90
2018-04-14T20:02:07.439Z,99.90
2018-04-14T20:04:33.857Z,99.90
2018-04-14T20:07:00.379Z,99.90
2018-04-14T20:09:26.807Z,99.90
2018-04-14T20:11:53.964Z,99.90
2018-04-14T20:14:20.384Z,99.90
2018-04-14T20:16:46.827Z,99.90
2018-04-14T20:19:13.266Z,99.90
2018-04-14T20:21:40.046Z,99.90
2018-04-14T20:24:06.485Z,99.90
2018-04-14T20:26:32.915Z,99.90
2018-04-14T20:28:59.352Z,99.90
2018-04-14T20:31:25.952Z,99.90
2018-04-14T20:33:53.184Z,99.90
2018-04-14T20:36:21.108Z,99.90
2018-04-14T20:38:47.562Z,99.90
2018-04-14T20:41:14.161Z,99.90
2018-04-14T20:43:40.585Z,99.90
2018-04-14T20:46:07.037Z,99.90
2018-04-14T20:48:33.455Z,99.90
2018-04-14T20:50:59.862Z,99.90
2018-04-14T20:53:27.052Z,99.90
2018-04-14T20:55:53.511Z,99.90
2018-04-14T20:58:19.955Z,99.90
2018-04-14T21:00:46.390Z,99.90
2018-04-14T21:03:12.819Z,99.90
2018-04-14T21:05:39.256Z,99.90
2018-04-14T21:08:05.663Z,99.90
2018-04-14T21:10:32.099Z,99.90
2018-04-14T21:12:58.522Z,99.90
2018-04-14T21:15:24.963Z,99.90
2018-04-14T21:17:51.387Z,99.90
2018-04-14T21:20:17.803Z,99.90
2018-04-14T21:22:45.053Z,99.90
2018-04-14T21:25:11.497Z,99.90
2018-04-14T21:27:37.948Z,99.90
2018-04-14T21:30:04.397Z,99.90
2018-04-14T21:32:30.837Z,99.90
2018-04-14T21:34:57.285Z,99.90
2018-04-14T21:37:23.739Z,99.90
2018-04-14T21:39:50.915Z,99.90
2018-04-14T21:42:17.334Z,99.90
2018-04-14T21:44:43.795Z,99.90
2018-04-14T21:47:10.271Z,99.90
2018-04-14T21:49:37.674Z,99.90
2018-04-14T21:52:04.142Z,99.90
2018-04-14T21:54:30.595Z,99.90
2018-04-14T21:56:57.027Z,99.90
2018-04-14T21:59:23.452Z,99.90
2018-04-14T22:01:49.904Z,99.90
2018-04-14T22:04:16.324Z,99.90
2018-04-14T22:06:42.779Z,99.90
2018-04-14T22:09:10.701Z,99.90
2018-04-14T22:11:44.191Z,99.90
2018-04-14T22:14:10.692Z,99.90
2018-04-14T22:16:37.875Z,99.90
2018-04-14T22:19:04.386Z,99.90
2018-04-14T22:21:30.805Z,99.90
2018-04-14T22:23:58.014Z,99.90
2018-04-14T22:26:24.469Z,99.90
2018-04-14T22:28:51.099Z,99.90
2018-04-14T22:31:17.558Z,99.90
2018-04-14T22:33:43.982Z,99.90
2018-04-14T22:36:10.465Z,99.90
2018-04-14T22:38:36.918Z,99.90
2018-04-14T22:41:03.348Z,99.90
2018-04-14T22:43:29.794Z,99.90
2018-04-14T22:45:56.232Z,99.90
2018-04-14T22:48:22.716Z,99.90
2018-04-14T22:50:49.151Z,99.90
2018-04-14T22:53:16.467Z,99.90
2018-04-14T22:55:42.893Z,99.90
2018-04-14T22:58:09.322Z,99.90
2018-04-14T23:00:35.797Z,99.90
2018-04-14T23:03:02.992Z,99.90
2018-04-14T23:05:29.458Z,99.90
2018-04-14T23:07:55.910Z,99.90
2018-04-14T23:10:22.378Z,99.90
2018-04-14T23:12:48.825Z,99.90
2018-04-14T23:15:15.270Z,99.90
2018-04-14T23:17:41.695Z,99.90
2018-04-14T23:20:08.139Z,99.90
2018-04-14T23:22:34.564Z,99.90
2018-04-14T23:25:02.570Z,99.90
2018-04-14T23:27:29.026Z,99.90
2018-04-14T23:29:56.228Z,99.90
2018-04-14T23:32:22.667Z,99.90
2018-04-14T23:34:49.108Z,99.90
2018-04-14T23:37:16.878Z,99.90
2018-04-14T23:39:43.307Z,99.90
2018-04-14T23:42:09.718Z,99.90
2018-04-14T23:44:36.158Z,99.90
2018-04-14T23:47:02.606Z,99.90
2018-04-14T23:49:29.195Z,99.90
2018-04-14T23:51:55.666Z,99.90
2018-04-14T23:54:22.123Z,99.90
2018-04-14T23:56:48.577Z,99.90
2018-04-14T23:59:14.993Z,99.90
